Time;durP1;ratioP1;P1;durP2;ratioP2;P2;SDS_P1;SDS_P2;PMS_P1;PMS_P2;Temp;Humidity;BMP_temperature;BMP_pressure;BME280_temperature;BME280_humidity;BME280_pressure;Samples;Min_cycle;Max_cycle;Signal;HPM_P1;HPM_P2
2023/04/26 00:02:28;;;;;;;;;;;10.60;40.80;;;9.12;43.65;100970.38;12270658;19;19994;-83
2023/04/26 00:06:30;;;;;;;;;;;10.60;40.80;;;9.15;43.76;100972.84;12271894;19;19939;-83
2023/04/26 00:10:32;;;;;;;;;;;10.50;40.80;;;9.13;43.86;100988.56;12272158;19;19918;-84
2023/04/26 00:14:33;;;;;;;;;;;10.50;40.90;;;8.83;43.91;100949.94;12269777;19;19915;-83
2023/04/26 00:18:35;;;;;;;;;;;10.50;40.90;;;9.03;43.88;100982.91;12266313;19;19919;-83
2023/04/26 00:22:37;;;;;;;;;;;10.40;40.90;;;8.93;43.88;100978.16;12271525;19;19915;-83
2023/04/26 00:26:38;;;;;;;;;;;10.40;40.90;;;9.03;43.80;100989.88;12269382;19;19922;-83
2023/04/26 00:30:46;;;;;;;;;;;10.30;40.90;;;8.94;43.82;100979.84;12269675;19;20022;-83
2023/04/26 00:34:48;;;;;;;;;;;10.30;40.90;;;8.92;43.94;100992.13;12269091;19;19926;-84
2023/04/26 00:38:49;;;;;;;;;;;10.30;40.90;;;8.78;43.94;100970.13;12270715;19;19948;-83
2023/04/26 00:42:56;;;;;;;;;;;10.20;41.00;;;8.62;43.71;100946.50;12272035;19;19914;-83
2023/04/26 00:46:58;;;;;;;;;;;10.20;41.00;;;8.77;43.82;100980.59;12269692;19;19986;-83
2023/04/26 00:51:00;;;;;;;;;;;10.20;40.90;;;8.80;44.12;100998.69;12267371;19;19915;-83
2023/04/26 00:55:01;;;;;;;;;;;10.20;41.00;;;8.69;43.83;100985.28;12256686;19;19943;-84
2023/04/26 00:59:03;;;;;;;;;;;10.10;41.00;;;8.80;43.93;101001.28;12258434;19;19922;-84
2023/04/26 01:03:04;;;;;;;;;;;10.10;41.00;;;8.67;43.91;100980.16;12258287;19;19927;-83
2023/04/26 01:07:07;;;;;;;;;;;10.10;41.10;;;8.71;43.81;100992.13;12255982;19;19915;-83
2023/04/26 01:11:09;;;;;;;;;;;10.10;41.10;;;8.72;44.03;100998.16;12257710;19;19926;-83
2023/04/26 01:15:10;;;;;;;;;;;10.00;41.10;;;8.61;44.04;100988.22;12256976;19;19922;-83
2023/04/26 01:19:12;;;;;;;;;;;10.00;41.10;;;8.35;44.11;100961.53;12257958;19;19911;-84
2023/04/26 01:23:14;;;;;;;;;;;10.00;41.10;;;8.36;44.03;100958.00;12257239;19;19911;-83
2023/04/26 01:27:15;;;;;;;;;;;10.20;41.30;;;8.53;43.88;101005.91;12253590;19;19921;-83
2023/04/26 01:31:17;;;;;;;;;;;10.00;41.20;;;8.21;43.86;100958.66;12257440;19;19963;-83
2023/04/26 01:35:19;;;;;;;;;;;9.90;41.10;;;8.49;44.01;101014.78;12254139;19;19930;-83
2023/04/26 01:39:22;;;;;;;;;;;9.80;41.10;;;8.37;43.97;101005.69;12254623;19;19954;-83
2023/04/26 01:43:25;;;;;;;;;;;9.80;41.20;;;8.40;44.21;101016.00;12256980;19;20255;-83
2023/04/26 01:47:26;;;;;;;;;;;10.00;41.30;;;8.07;44.17;100967.00;12250384;19;19942;-83
2023/04/26 01:51:28;;;;;;;;;;;9.70;41.20;;;8.27;44.00;101005.22;12256688;19;19915;-83
2023/04/26 01:55:29;;;;;;;;;;;9.70;41.20;;;8.37;43.98;101032.56;12254258;19;19926;-84
2023/04/26 01:59:32;;;;;;;;;;;9.70;41.30;;;8.31;44.01;101017.19;12257054;19;19927;-83
2023/04/26 02:03:34;;;;;;;;;;;9.70;41.30;;;8.33;44.08;101025.78;12256325;19;19915;-83
2023/04/26 02:07:36;;;;;;;;;;;9.70;41.60;;;8.25;44.21;101012.25;12252770;19;19989;-83
2023/04/26 02:11:37;;;;;;;;;;;9.60;41.50;;;8.23;44.01;101024.47;12254064;19;19919;-83
2023/04/26 02:15:39;;;;;;;;;;;9.60;41.40;;;8.16;44.24;101021.28;12251544;19;20345;-83
2023/04/26 02:19:41;;;;;;;;;;;9.50;41.40;;;8.14;44.08;101017.03;12253010;19;19915;-83
2023/04/26 02:23:44;;;;;;;;;;;9.50;41.40;;;8.12;44.07;101017.09;12253986;19;19919;-83
2023/04/26 02:27:45;;;;;;;;;;;9.50;41.50;;;8.06;44.13;101027.75;12251484;19;19923;-84
2023/04/26 02:31:47;;;;;;;;;;;9.40;41.50;;;8.03;44.32;101016.63;12255895;19;19907;-83
2023/04/26 02:35:49;;;;;;;;;;;9.40;41.60;;;7.74;44.21;100979.63;12251133;19;19922;-83
2023/04/26 02:39:50;;;;;;;;;;;9.40;41.50;;;7.95;44.21;101022.97;12251538;19;19914;-84
2023/04/26 02:43:52;;;;;;;;;;;9.30;41.60;;;7.55;44.41;100963.91;12251583;19;19928;-83
2023/04/26 02:47:54;;;;;;;;;;;9.30;41.70;;;7.68;44.21;100993.69;12249171;19;19919;-83
2023/04/26 02:51:55;;;;;;;;;;;9.30;41.70;;;7.82;44.29;101021.75;12251288;19;19911;-83
2023/04/26 02:55:59;;;;;;;;;;;9.20;41.80;;;7.59;44.28;100977.59;12248667;19;20364;-83
2023/04/26 03:00:04;;;;;;;;;;;9.20;41.70;;;7.70;44.46;101006.66;12250842;19;19943;-83
2023/04/26 03:04:06;;;;;;;;;;;9.20;41.70;;;7.80;44.34;101023.56;12249838;19;20383;-83
2023/04/26 03:08:09;;;;;;;;;;;9.20;41.80;;;7.76;44.32;101025.44;12247677;19;19918;-83
2023/04/26 03:12:11;;;;;;;;;;;9.10;41.90;;;7.61;44.44;101014.78;12250157;19;20318;-83
2023/04/26 03:16:13;;;;;;;;;;;9.10;41.80;;;7.69;44.47;101028.34;12246132;19;19919;-84
2023/04/26 03:20:14;;;;;;;;;;;9.10;41.80;;;7.59;44.40;101012.25;12250265;19;19990;-83
2023/04/26 03:24:16;;;;;;;;;;;9.00;41.80;;;7.66;44.52;101025.84;12250033;19;19919;-83
2023/04/26 03:28:18;;;;;;;;;;;9.10;41.80;;;7.67;44.38;101030.13;12246831;19;19997;-83
2023/04/26 03:32:19;;;;;;;;;;;9.00;41.80;;;7.65;44.52;101043.22;12250012;19;19929;-83
2023/04/26 03:36:21;;;;;;;;;;;9.00;41.80;;;7.36;44.53;101000.13;12246436;19;20369;-83
2023/04/26 03:40:23;;;;;;;;;;;9.00;41.80;;;7.64;44.37;101043.25;12246321;19;19915;-83
2023/04/26 03:44:25;;;;;;;;;;;9.00;41.90;;;7.50;44.44;101030.78;12246817;19;19926;-83
2023/04/26 03:48:26;;;;;;;;;;;9.00;41.80;;;7.53;44.47;101048.84;12245132;19;20270;-83
2023/04/26 03:52:29;;;;;;;;;;;9.00;41.90;;;7.60;44.56;101049.47;12245261;19;19922;-83
2023/04/26 03:56:31;;;;;;;;;;;9.20;41.90;;;7.51;44.50;101040.28;12244491;19;19926;-83
2023/04/26 04:00:36;;;;;;;;;;;8.90;41.90;;;7.28;44.65;101008.19;12245808;19;19919;-84
2023/04/26 04:04:38;;;;;;;;;;;8.90;41.80;;;7.47;44.49;101036.94;12246992;19;20329;-83
2023/04/26 04:08:40;;;;;;;;;;;8.90;41.80;;;7.56;44.58;101058.28;12243232;19;19943;-83
2023/04/26 04:12:41;;;;;;;;;;;9.00;42.00;;;7.49;44.54;101058.53;12247655;19;19917;-83
2023/04/26 04:16:43;;;;;;;;;;;9.00;42.00;;;7.45;44.53;101049.16;12246880;19;19933;-84
2023/04/26 04:20:46;;;;;;;;;;;8.90;42.00;;;7.51;44.52;101061.06;12252072;19;19926;-83
2023/04/26 04:24:48;;;;;;;;;;;8.90;42.00;;;7.13;44.58;101007.91;12246221;19;19949;-83
2023/04/26 04:28:54;;;;;;;;;;;8.80;41.90;;;7.32;44.82;101046.16;12253431;19;19926;-83
2023/04/26 04:32:58;;;;;;;;;;;8.80;42.10;;;7.43;44.60;101074.34;12250592;19;19955;-84
2023/04/26 04:36:59;;;;;;;;;;;8.80;42.00;;;7.43;44.68;101076.09;12252988;19;19930;-83
2023/04/26 04:41:01;;;;;;;;;;;8.80;42.10;;;7.31;44.86;101054.00;12253842;19;19925;-84
2023/04/26 04:45:04;;;;;;;;;;;8.80;42.10;;;7.45;44.67;101088.13;12256538;19;19924;-84
2023/04/26 04:49:10;;;;;;;;;;;8.80;42.10;;;7.25;44.74;101062.84;12256697;19;19949;-84
2023/04/26 04:53:12;;;;;;;;;;;8.80;42.00;;;7.44;44.88;101104.63;12257489;19;19910;-83
2023/04/26 04:57:15;;;;;;;;;;;8.80;42.00;;;7.43;44.96;101094.28;12251428;19;19931;-84
2023/04/26 05:01:19;;;;;;;;;;;8.80;42.20;;;7.16;44.86;101049.38;12256554;19;19990;-84
2023/04/26 05:05:25;;;;;;;;;;;8.80;42.20;;;7.40;45.03;101100.44;12254307;19;20253;-84
2023/04/26 05:09:27;;;;;;;;;;;8.80;42.30;;;7.35;44.99;101091.97;12255817;19;19918;-84
2023/04/26 05:13:29;;;;;;;;;;;8.80;42.30;;;7.35;44.80;101091.13;12256353;19;20377;-84
2023/04/26 05:17:32;;;;;;;;;;;8.90;42.50;;;7.35;44.85;101083.31;12252201;19;19923;-84
2023/04/26 05:21:38;;;;;;;;;;;8.90;42.40;;;7.37;45.11;101089.28;12258781;19;19923;-84
2023/04/26 05:25:41;;;;;;;;;;;8.90;42.50;;;7.55;45.04;101122.41;12263864;19;19922;-84
2023/04/26 05:30:12;;;;;;;;;;;8.90;42.50;;;7.60;44.99;101117.06;12262312;19;19986;-84
2023/04/26 05:34:40;;;;;;;;;;;9.00;42.50;;;7.65;45.15;101125.53;12266019;19;19911;-84
2023/04/26 05:38:45;;;;;;;;;;;9.00;42.90;;;7.54;44.89;101107.75;12258529;19;19926;-84
2023/04/26 05:42:46;;;;;;;;;;;9.10;42.70;;;7.65;45.14;101120.34;12258169;19;20357;-84
2023/04/26 05:46:48;;;;;;;;;;;9.10;42.60;;;7.70;44.97;101118.41;12246118;19;20347;-83
2023/04/26 05:50:50;;;;;;;;;;;9.20;42.70;;;7.82;45.11;101148.31;12252060;19;20459;-83
2023/04/26 05:54:52;;;;;;;;;;;9.20;42.70;;;7.75;45.26;101132.94;12248786;19;19931;-83
2023/04/26 05:58:53;;;;;;;;;;;9.30;42.60;;;7.85;45.20;101130.81;12252357;19;19919;-83
2023/04/26 06:02:56;;;;;;;;;;;9.30;42.80;;;7.97;45.34;101129.53;12249618;19;19978;-83
2023/04/26 06:06:59;;;;;;;;;;;9.40;42.80;;;7.98;45.38;101119.06;12248441;19;19915;-82
2023/04/26 06:11:01;;;;;;;;;;;9.50;42.80;;;8.19;45.22;101133.00;12250290;19;20253;-83
2023/04/26 06:15:03;;;;;;;;;;;9.60;42.80;;;8.35;45.16;101154.06;12249595;19;19927;-84
2023/04/26 06:19:06;;;;;;;;;;;9.80;42.70;;;8.37;45.19;101141.84;12252305;19;19915;-83
2023/04/26 06:23:08;;;;;;;;;;;9.90;42.70;;;8.35;45.36;101112.44;12249782;19;19923;-84
2023/04/26 06:27:10;;;;;;;;;;;10.00;42.80;;;8.53;45.41;101136.94;12249903;19;19930;-83
2023/04/26 06:31:15;;;;;;;;;;;10.10;42.80;;;8.60;45.26;101133.16;12250125;19;20256;-84
2023/04/26 06:35:17;;;;;;;;;;;10.10;42.80;;;8.71;45.45;101132.72;12250923;19;19918;-84
2023/04/26 06:39:19;;;;;;;;;;;10.20;42.70;;;8.80;45.42;101137.56;12249620;19;19923;-83
2023/04/26 06:43:20;;;;;;;;;;;10.30;42.90;;;8.85;45.27;101139.97;12253379;19;19919;-83
2023/04/26 06:47:31;;;;;;;;;;;10.30;43.40;;;8.80;45.43;101124.53;12247544;19;20372;-83
2023/04/26 06:51:32;;;;;;;;;;;10.40;42.90;;;8.99;45.44;101136.78;12248086;19;19938;-83
2023/04/26 06:55:34;;;;;;;;;;;10.50;42.80;;;8.83;45.48;101097.50;12250179;19;19915;-83
2023/04/26 06:59:35;;;;;;;;;;;10.60;42.80;;;9.22;45.44;101156.66;12249373;19;19925;-84
2023/04/26 07:03:41;;;;;;;;;;;10.70;42.70;;;9.30;45.41;101152.81;12251456;19;19978;-84
2023/04/26 07:07:43;;;;;;;;;;;10.70;42.80;;;9.31;45.42;101140.63;12249954;19;19918;-84
2023/04/26 07:11:46;;;;;;;;;;;10.80;42.90;;;9.45;45.48;101150.44;12249822;19;19915;-84
2023/04/26 07:15:47;;;;;;;;;;;11.10;42.90;;;9.53;45.38;101150.94;12246276;19;19956;-82
2023/04/26 07:19:49;;;;;;;;;;;11.00;42.70;;;9.67;45.43;101168.63;12252516;19;20000;-84
2023/04/26 07:23:54;;;;;;;;;;;11.10;42.70;;;9.71;45.46;101149.28;12250717;19;19957;-83
2023/04/26 07:27:56;;;;;;;;;;;11.20;42.50;;;9.74;45.49;101149.16;12248090;19;19931;-84
2023/04/26 07:31:58;;;;;;;;;;;11.30;42.60;;;9.98;45.57;101163.69;12248512;19;20325;-84
2023/04/26 07:36:00;;;;;;;;;;;11.40;42.60;;;10.10;45.37;101164.91;12248261;19;19933;-84
2023/04/26 07:40:03;;;;;;;;;;;11.60;42.60;;;10.20;45.55;101166.16;12247373;19;20319;-83
2023/04/26 07:44:05;;;;;;;;;;;11.70;42.40;;;10.17;45.44;101140.19;12246597;19;19979;-84
2023/04/26 07:48:07;;;;;;;;;;;11.80;42.40;;;10.31;45.65;101154.41;12242505;19;19922;-84
2023/04/26 07:52:08;;;;;;;;;;;11.90;42.50;;;10.46;45.52;101163.28;12246071;19;19927;-84
2023/04/26 07:56:10;;;;;;;;;;;12.00;42.30;;;10.62;45.49;101172.91;12244403;19;19943;-85
2023/04/26 08:00:12;;;;;;;;;;;12.10;42.20;;;10.62;45.67;101146.81;12247991;19;19923;-85
2023/04/26 08:04:14;;;;;;;;;;;12.20;42.30;;;10.88;45.57;101176.00;12257162;19;20423;-84
2023/04/26 08:08:16;;;;;;;;;;;12.30;42.10;;;10.99;45.49;101186.81;12255400;19;19918;-84
2023/04/26 08:12:18;;;;;;;;;;;12.20;41.90;;;10.94;45.42;101157.44;12259575;19;20282;-85
2023/04/26 08:16:19;;;;;;;;;;;12.50;41.60;;;10.84;45.18;101143.13;12259159;19;19922;-85
2023/04/26 08:20:21;;;;;;;;;;;12.60;41.70;;;10.79;45.31;101124.22;12258534;19;19927;-84
2023/04/26 08:24:23;;;;;;;;;;;12.60;41.60;;;10.77;45.33;101120.84;12262461;19;19919;-85
2023/04/26 08:28:24;;;;;;;;;;;12.60;41.30;;;11.21;45.39;101167.44;12255212;19;19922;-85
2023/04/26 08:32:26;;;;;;;;;;;12.70;41.40;;;11.28;45.33;101174.88;12260547;19;20263;-84
2023/04/26 08:36:28;;;;;;;;;;;12.80;41.60;;;11.33;45.22;101177.25;12257021;19;19927;-85
2023/04/26 08:40:30;;;;;;;;;;;12.80;41.30;;;11.35;45.34;101157.09;12260203;19;20588;-85
2023/04/26 08:44:34;;;;;;;;;;;12.90;41.40;;;11.56;45.54;101163.00;12261657;19;19931;-84
2023/04/26 08:48:36;;;;;;;;;;;13.10;41.60;;;11.68;45.24;101177.19;12256352;19;20313;-84
2023/04/26 08:52:39;;;;;;;;;;;13.20;41.50;;;11.57;45.30;101163.84;12257086;19;19948;-83
2023/04/26 08:56:43;;;;;;;;;;;13.20;41.40;;;11.76;45.16;101195.13;12254623;19;19927;-83
2023/04/26 09:00:45;;;;;;;;;;;13.30;41.20;;;11.58;45.17;101170.75;12257546;19;19915;-84
2023/04/26 09:04:47;;;;;;;;;;;13.20;41.00;;;11.56;45.17;101168.25;12258454;19;19911;-84
2023/04/26 09:08:51;;;;;;;;;;;13.20;41.10;;;11.62;45.26;101169.69;12250824;19;19922;-84
2023/04/26 09:12:53;;;;;;;;;;;13.20;41.30;;;11.77;45.36;101183.72;12252815;19;20272;-84
2023/04/26 09:16:55;;;;;;;;;;;13.30;41.40;;;11.84;45.29;101203.41;12250270;19;19934;-84
2023/04/26 09:21:05;;;;;;;;;;;13.30;41.20;;;11.80;45.23;101200.13;12255511;19;20260;-84
2023/04/26 09:25:07;;;;;;;;;;;13.30;41.10;;;11.74;44.98;101189.94;12256196;19;19918;-84
2023/04/26 09:29:16;;;;;;;;;;;13.30;41.10;;;11.77;45.16;101197.63;12253879;19;19918;-83
2023/04/26 09:33:18;;;;;;;;;;;13.20;41.20;;;11.78;45.22;101194.13;12254764;19;19926;-85
2023/04/26 09:37:20;;;;;;;;;;;13.30;41.30;;;11.87;45.26;101182.34;12250473;19;19915;-84
2023/04/26 09:41:21;;;;;;;;;;;13.30;41.40;;;12.04;45.31;101168.34;12254356;19;19922;-84
2023/04/26 09:45:23;;;;;;;;;;;13.40;41.40;;;12.19;45.03;101185.84;12253287;19;19922;-84
2023/04/26 09:49:26;;;;;;;;;;;13.50;41.00;;;12.18;45.16;101173.69;12253423;19;20253;-85
2023/04/26 09:53:29;;;;;;;;;;;13.60;40.70;;;12.34;45.04;101192.00;12253637;19;19922;-84
2023/04/26 09:57:31;;;;;;;;;;;13.80;40.90;;;12.32;45.09;101178.16;12249590;19;19931;-84
2023/04/26 10:01:33;;;;;;;;;;;13.80;41.00;;;12.49;45.01;101179.84;12255675;19;19936;-84
2023/04/26 10:05:35;;;;;;;;;;;13.90;40.80;;;12.65;44.85;101193.75;12252342;19;19917;-84
2023/04/26 10:09:37;;;;;;;;;;;14.00;40.40;;;12.65;45.09;101188.53;12253504;19;19967;-84
2023/04/26 10:13:43;;;;;;;;;;;14.10;40.40;;;12.58;44.92;101181.94;12254443;19;19919;-84
2023/04/26 10:17:45;;;;;;;;;;;14.10;40.60;;;12.67;45.01;101188.44;12249365;19;20337;-84
2023/04/26 10:21:47;;;;;;;;;;;14.20;39.90;;;12.85;44.90;101187.38;12252164;19;19931;-84
2023/04/26 10:25:49;;;;;;;;;;;14.40;40.50;;;12.90;44.80;101195.81;12248677;19;19927;-85
2023/04/26 10:29:54;;;;;;;;;;;14.30;40.30;;;12.99;44.82;101184.84;12251423;19;19957;-84
2023/04/26 10:34:18;;;;;;;;;;;14.40;40.20;;;13.10;44.82;101194.69;12253796;19;19946;-84
2023/04/26 10:38:20;;;;;;;;;;;14.40;40.60;;;13.03;44.77;101172.38;12247291;19;19926;-84
2023/04/26 10:42:26;;;;;;;;;;;14.60;40.40;;;13.10;44.68;101186.84;12251024;19;19918;-84
2023/04/26 10:46:38;;;;;;;;;;;14.60;40.50;;;13.11;44.85;101185.88;12250358;19;20314;-84
2023/04/26 10:51:03;;;;;;;;;;;14.60;40.20;;;13.17;44.75;101190.75;12250526;19;19939;-84
2023/04/26 10:55:05;;;;;;;;;;;14.60;40.20;;;13.06;44.70;101161.72;12250172;19;19926;-84
2023/04/26 10:59:08;;;;;;;;;;;14.60;40.20;;;13.36;44.77;101192.34;12249599;19;19996;-84
2023/04/26 11:03:10;;;;;;;;;;;14.70;40.10;;;13.42;44.58;101177.09;12251466;19;19958;-84
2023/04/26 11:07:12;;;;;;;;;;;14.80;39.70;;;13.46;44.48;101196.09;12250242;19;19918;-84
2023/04/26 11:11:15;;;;;;;;;;;14.90;39.00;;;13.40;44.41;101196.47;12251317;19;19919;-84
2023/04/26 11:15:17;;;;;;;;;;;14.80;39.60;;;13.33;44.48;101200.41;12248810;19;19922;-84
2023/04/26 11:19:18;;;;;;;;;;;14.80;39.80;;;13.12;44.39;101171.81;12248231;19;20304;-84
2023/04/26 11:23:21;;;;;;;;;;;14.80;39.70;;;13.15;44.37;101187.41;12248952;19;19984;-84
2023/04/26 11:27:26;;;;;;;;;;;14.70;39.80;;;13.23;44.25;101208.78;12243839;19;19911;-83
2023/04/26 11:31:29;;;;;;;;;;;14.60;39.80;;;13.17;44.28;101198.63;12248654;19;19982;-85
2023/04/26 11:35:35;;;;;;;;;;;14.60;39.40;;;13.15;44.29;101194.41;12245952;19;19927;-83
2023/04/26 11:39:37;;;;;;;;;;;14.50;39.70;;;13.16;44.19;101209.22;12247559;19;20242;-84
2023/04/26 11:43:39;;;;;;;;;;;14.50;39.70;;;13.03;44.28;101175.00;12247985;19;19945;-84
2023/04/26 11:47:41;;;;;;;;;;;14.60;39.60;;;12.97;44.25;101178.81;12245963;19;19951;-83
2023/04/26 11:51:46;;;;;;;;;;;14.40;38.60;;;12.94;44.11;101193.91;12247944;19;19914;-84
2023/04/26 11:55:49;;;;;;;;;;;14.40;39.00;;;12.88;44.12;101200.34;12245776;19;20279;-85
2023/04/26 11:59:51;;;;;;;;;;;14.30;39.40;;;12.92;44.17;101208.84;12246002;19;19919;-84
2023/04/26 12:03:58;;;;;;;;;;;14.30;38.80;;;12.83;44.12;101197.13;12247822;19;19927;-84
2023/04/26 12:07:59;;;;;;;;;;;14.30;38.80;;;12.95;44.16;101196.41;12242433;19;19927;-85
2023/04/26 12:12:05;;;;;;;;;;;14.30;39.40;;;13.06;44.12;101212.38;12246176;19;19922;-85
2023/04/26 12:16:08;;;;;;;;;;;14.40;39.00;;;13.23;44.04;101208.78;12245998;19;19919;-84
2023/04/26 12:20:12;;;;;;;;;;;14.50;39.30;;;13.28;43.81;101229.50;12248520;19;19922;-83
2023/04/26 12:24:25;;;;;;;;;;;14.50;39.40;;;13.24;44.00;101226.19;12248806;19;19918;-84
2023/04/26 12:28:27;;;;;;;;;;;14.60;39.60;;;13.21;43.96;101215.88;12242733;19;19927;-85
2023/04/26 12:32:28;;;;;;;;;;;14.60;39.50;;;13.13;43.82;101222.53;12246363;19;19931;-83
2023/04/26 12:36:30;;;;;;;;;;;14.60;39.60;;;13.09;43.90;101221.81;12242626;19;19915;-83
2023/04/26 12:40:31;;;;;;;;;;;14.50;39.50;;;12.94;43.74;101209.63;12244586;19;20002;-83
2023/04/26 12:44:33;;;;;;;;;;;14.50;39.00;;;12.95;43.85;101208.69;12243737;19;19923;-83
2023/04/26 12:48:36;;;;;;;;;;;14.40;39.50;;;13.06;43.90;101229.88;12248288;19;20301;-83
2023/04/26 12:52:39;;;;;;;;;;;14.40;39.50;;;13.07;43.87;101223.72;12254216;19;19970;-83
2023/04/26 12:56:43;;;;;;;;;;;14.40;39.40;;;12.78;43.87;101171.19;12253520;19;19931;-83
2023/04/26 13:00:44;;;;;;;;;;;14.40;39.30;;;13.05;43.75;101204.59;12255143;19;20370;-83
2023/04/26 13:04:46;;;;;;;;;;;14.40;39.40;;;13.13;43.79;101214.66;12256577;19;19923;-82
2023/04/26 13:08:48;;;;;;;;;;;14.40;39.10;;;13.14;43.63;101209.28;12249004;19;20336;-83
2023/04/26 13:12:49;;;;;;;;;;;14.50;39.20;;;13.17;43.66;101230.09;12257388;19;19918;-83
2023/04/26 13:16:52;;;;;;;;;;;14.50;39.40;;;13.20;43.69;101245.66;12253564;19;19990;-83
2023/04/26 13:20:53;;;;;;;;;;;14.50;39.20;;;13.21;43.75;101242.13;12251892;19;19929;-83
2023/04/26 13:24:55;;;;;;;;;;;14.50;39.30;;;13.14;43.67;101219.78;12252822;19;20353;-83
2023/04/26 13:28:56;;;;;;;;;;;14.60;39.30;;;13.13;43.56;101204.16;12251616;19;19919;-83
2023/04/26 13:32:58;;;;;;;;;;;14.50;39.10;;;13.33;43.69;101221.38;12254148;19;19911;-83
2023/04/26 13:37:00;;;;;;;;;;;14.60;39.20;;;13.39;43.65;101215.75;12249472;19;19915;-82
2023/04/26 13:41:01;;;;;;;;;;;14.70;39.20;;;13.56;43.66;101220.03;12253905;19;20301;-82
2023/04/26 13:45:08;;;;;;;;;;;14.80;39.30;;;13.56;43.49;101199.88;12252605;19;19923;-83
2023/04/26 13:49:09;;;;;;;;;;;14.90;39.10;;;13.70;43.58;101210.38;12252116;19;19915;-83
2023/04/26 13:53:11;;;;;;;;;;;15.00;39.00;;;13.75;43.54;101217.13;12252797;19;19910;-83
2023/04/26 13:57:12;;;;;;;;;;;15.10;38.60;;;13.74;43.48;101211.03;12249950;19;19922;-82
2023/04/26 14:01:14;;;;;;;;;;;15.10;38.40;;;13.56;43.47;101178.88;12251811;19;19947;-83
2023/04/26 14:05:16;;;;;;;;;;;15.10;38.80;;;13.85;43.49;101220.88;12251523;19;19918;-83
2023/04/26 14:09:18;;;;;;;;;;;15.20;38.90;;;13.85;43.37;101221.75;12252964;19;19917;-83
2023/04/26 14:13:20;;;;;;;;;;;15.20;38.80;;;13.78;43.32;101209.06;12241272;19;20203;-83
2023/04/26 14:17:21;;;;;;;;;;;15.20;38.80;;;13.83;43.23;101228.84;12243469;19;20345;-83
2023/04/26 14:21:23;;;;;;;;;;;15.20;38.60;;;13.77;43.29;101228.38;12254155;19;19911;-83
2023/04/26 14:25:25;;;;;;;;;;;15.20;38.90;;;13.78;43.08;101240.56;12252381;19;19911;-82
2023/04/26 14:29:27;;;;;;;;;;;15.10;38.10;;;13.59;43.05;101236.41;12250839;19;19919;-84
2023/04/26 14:33:29;;;;;;;;;;;15.10;38.50;;;13.60;43.30;101255.63;12249427;19;19927;-83
2023/04/26 14:37:30;;;;;;;;;;;15.00;38.70;;;13.53;43.22;101251.66;12249547;19;20557;-83
2023/04/26 14:41:32;;;;;;;;;;;14.90;38.90;;;13.44;43.18;101243.41;12251944;19;19910;-83
2023/04/26 14:45:33;;;;;;;;;;;14.80;39.00;;;13.24;43.21;101214.88;12257662;19;19961;-84
2023/04/26 14:49:35;;;;;;;;;;;14.80;39.00;;;13.49;43.20;101251.00;12253365;19;20258;-83
2023/04/26 14:53:37;;;;;;;;;;;14.70;39.10;;;13.42;43.12;101233.94;12253975;19;20250;-82
2023/04/26 14:57:39;;;;;;;;;;;14.70;39.00;;;13.48;43.13;101255.44;12246618;19;19986;-84
2023/04/26 15:01:41;;;;;;;;;;;14.80;38.90;;;13.44;43.08;101240.78;12251900;19;19922;-83
2023/04/26 15:05:43;;;;;;;;;;;14.70;39.20;;;13.49;43.14;101237.91;12250599;19;19922;-83
2023/04/26 15:09:45;;;;;;;;;;;14.80;39.00;;;13.55;43.06;101248.03;12249928;19;19915;-84
2023/04/26 15:13:46;;;;;;;;;;;14.80;38.90;;;13.49;43.00;101235.28;12247397;19;20333;-83
2023/04/26 15:17:48;;;;;;;;;;;14.80;39.00;;;13.60;42.97;101253.84;12247990;19;19978;-83
2023/04/26 15:21:49;;;;;;;;;;;14.90;39.00;;;13.56;42.95;101249.72;12251341;19;19919;-83
2023/04/26 15:25:51;;;;;;;;;;;14.80;39.00;;;13.38;43.02;101220.16;12249568;19;19931;-83
2023/04/26 15:29:52;;;;;;;;;;;14.80;38.60;;;13.47;42.96;101252.88;12250385;19;19918;-83
2023/04/26 15:33:55;;;;;;;;;;;14.80;38.70;;;13.46;42.97;101259.91;12248084;19;19978;-83
2023/04/26 15:37:56;;;;;;;;;;;14.70;38.60;;;13.40;42.98;101260.28;12245547;19;19947;-83
2023/04/26 15:41:57;;;;;;;;;;;14.70;38.80;;;13.26;42.95;101228.78;12247756;19;19936;-83
2023/04/26 15:45:59;;;;;;;;;;;14.60;39.00;;;13.36;42.83;101256.13;12247106;19;19933;-83
2023/04/26 15:50:05;;;;;;;;;;;14.60;39.10;;;13.36;42.81;101250.03;12247564;19;19918;-83
2023/04/26 15:54:06;;;;;;;;;;;14.60;38.90;;;13.36;42.71;101244.81;12248939;19;19918;-84
2023/04/26 15:58:08;;;;;;;;;;;14.60;39.10;;;13.37;42.89;101242.09;12244256;19;20015;-83
2023/04/26 16:02:10;;;;;;;;;;;14.60;39.10;;;13.38;42.78;101262.13;12249977;19;19915;-83
2023/04/26 16:06:11;;;;;;;;;;;14.60;38.90;;;13.34;42.82;101247.53;12246140;19;20340;-83
2023/04/26 16:10:12;;;;;;;;;;;14.60;38.80;;;13.27;42.78;101240.94;12247686;19;19915;-83
2023/04/26 16:14:14;;;;;;;;;;;14.40;38.40;;;13.27;42.67;101240.94;12246275;19;20345;-83
2023/04/26 16:18:16;;;;;;;;;;;14.50;38.70;;;13.26;42.68;101249.75;12246330;19;19922;-83
2023/04/26 16:22:18;;;;;;;;;;;14.50;38.50;;;13.21;42.78;101241.28;12249002;19;20349;-83
2023/04/26 16:26:19;;;;;;;;;;;14.50;38.80;;;13.12;42.76;101234.75;12258846;19;19915;-82
2023/04/26 16:30:21;;;;;;;;;;;14.40;38.80;;;13.13;42.83;101235.63;12259320;19;19923;-84
2023/04/26 16:34:22;;;;;;;;;;;14.40;38.80;;;13.21;42.66;101249.13;12258910;19;19980;-83
2023/04/26 16:38:24;;;;;;;;;;;14.50;38.80;;;13.17;42.75;101243.22;12253955;19;19921;-83
2023/04/26 16:42:25;;;;;;;;;;;14.40;38.50;;;13.16;42.64;101238.06;12259993;19;20381;-84
2023/04/26 16:46:27;;;;;;;;;;;14.40;38.80;;;13.17;42.79;101258.94;12255333;19;19918;-83
2023/04/26 16:50:28;;;;;;;;;;;14.40;38.90;;;13.07;42.52;101242.06;12257906;19;20345;-83
2023/04/26 16:54:30;;;;;;;;;;;14.40;38.90;;;13.09;42.61;101255.91;12256972;19;19994;-83
2023/04/26 16:58:31;;;;;;;;;;;14.40;38.80;;;13.09;42.62;101270.81;12254402;19;19934;-82
2023/04/26 17:02:33;;;;;;;;;;;14.30;38.80;;;13.03;42.62;101269.38;12258495;19;19919;-84
2023/04/26 17:06:35;;;;;;;;;;;14.30;38.60;;;12.99;42.62;101262.66;12257540;19;19907;-83
2023/04/26 17:10:36;;;;;;;;;;;14.30;38.60;;;12.96;42.52;101262.78;12256797;19;19922;-82
2023/04/26 17:14:39;;;;;;;;;;;14.30;38.80;;;13.01;42.61;101273.88;12258252;19;19929;-84
2023/04/26 17:18:41;;;;;;;;;;;14.20;38.70;;;12.96;42.51;101271.53;12256879;19;19923;-84
2023/04/26 17:22:43;;;;;;;;;;;14.20;38.70;;;12.87;42.57;101250.22;12257806;19;19923;-83
2023/04/26 17:26:45;;;;;;;;;;;14.20;38.90;;;12.95;42.53;101268.97;12254061;19;19922;-82
2023/04/26 17:30:47;;;;;;;;;;;14.20;38.80;;;12.87;42.50;101264.16;12257884;19;20329;-83
2023/04/26 17:34:48;;;;;;;;;;;14.10;38.80;;;12.90;42.56;101274.47;12254904;19;19911;-82
2023/04/26 17:38:50;;;;;;;;;;;14.10;38.90;;;12.60;42.50;101222.00;12256986;19;19911;-82
2023/04/26 17:42:51;;;;;;;;;;;14.10;38.90;;;12.91;42.48;101278.78;12255321;19;19961;-83
2023/04/26 17:46:53;;;;;;;;;;;14.20;38.70;;;12.89;42.44;101271.94;12252554;19;19919;-84
2023/04/26 17:50:55;;;;;;;;;;;14.10;38.80;;;12.89;42.52;101270.16;12256016;19;19919;-83
2023/04/26 17:54:57;;;;;;;;;;;14.10;38.90;;;12.89;42.53;101282.44;12254703;19;19911;-83
2023/04/26 17:58:58;;;;;;;;;;;14.10;38.80;;;12.89;42.49;101287.69;12255206;19;19914;-82
2023/04/26 18:03:03;;;;;;;;;;;14.10;38.80;;;12.78;42.48;101281.25;12253566;19;19933;-82
2023/04/26 18:07:05;;;;;;;;;;;14.10;38.80;;;12.85;42.42;101292.22;12249212;19;19907;-83
2023/04/26 18:11:07;;;;;;;;;;;14.10;38.90;;;12.83;42.41;101299.34;12255065;19;19907;-83
2023/04/26 18:15:08;;;;;;;;;;;14.20;38.90;;;12.77;42.41;101300.53;12245762;19;19933;-84
2023/04/26 18:19:10;;;;;;;;;;;14.00;38.80;;;12.71;42.42;101298.22;12252287;19;19978;-83